Plymouth, Minnesota
Current Conditions -  °F | °C
As of 5:53 PM on Thursday 27 Nov 2014 (Local Time) from KMIC Reporting Station
Clear Clear  
Wind Chill: -3°   Ceiling: Unl
Heat Index:   Visibility: 10mi
Dew Point: -2°   Wind: 8mph
Humidity: 61%   Direction: 170°S
Pressure: 30.36"   Gusts: NA
Location:  45.02°N, 93.47°W
Report Text: KMIC 272353Z 17007KT 10SM CLR M13/M19 A3036 RMK AO2 SLP305 T11281189 11111 21144 56022
Loading
Personal Weather Stations






























Interactive Weather Map New forecast layout! Learn more

10-Day Weather Forecast

Advertisements
Track Severe Weather on mobile